sensor_id;sensor_type;location;lat;lon;timestamp;pressure;altitude;pressure_sealevel;temperature
10058;BMP180;5068;51.286;7.518;2022-08-02T00:00:48;99694.00;;;18.10
10058;BMP180;5068;51.286;7.518;2022-08-02T00:02:26;99683.00;;;18.10
10058;BMP180;5068;51.286;7.518;2022-08-02T00:03:59;99689.00;;;18.10
10058;BMP180;5068;51.286;7.518;2022-08-02T00:05:33;99688.00;;;18.00
10058;BMP180;5068;51.286;7.518;2022-08-02T00:07:07;99687.00;;;18.00
10058;BMP180;5068;51.286;7.518;2022-08-02T00:08:40;99691.00;;;18.00
10058;BMP180;5068;51.286;7.518;2022-08-02T00:10:13;99691.00;;;18.00
10058;BMP180;5068;51.286;7.518;2022-08-02T00:11:47;99686.00;;;18.00
10058;BMP180;5068;51.286;7.518;2022-08-02T00:13:20;99693.00;;;18.00
10058;BMP180;5068;51.286;7.518;2022-08-02T00:14:55;99694.00;;;18.00
10058;BMP180;5068;51.286;7.518;2022-08-02T00:16:29;99693.00;;;18.00
10058;BMP180;5068;51.286;7.518;2022-08-02T00:18:09;99695.00;;;18.00
10058;BMP180;5068;51.286;7.518;2022-08-02T00:19:43;99700.00;;;18.00
10058;BMP180;5068;51.286;7.518;2022-08-02T00:21:17;99693.00;;;18.00
10058;BMP180;5068;51.286;7.518;2022-08-02T00:22:50;99692.00;;;18.00
10058;BMP180;5068;51.286;7.518;2022-08-02T00:24:24;99687.00;;;18.00
10058;BMP180;5068;51.286;7.518;2022-08-02T00:26:02;99681.00;;;18.00
10058;BMP180;5068;51.286;7.518;2022-08-02T00:27:35;99693.00;;;17.90
10058;BMP180;5068;51.286;7.518;2022-08-02T00:29:09;99694.00;;;17.90
10058;BMP180;5068;51.286;7.518;2022-08-02T00:30:43;99699.00;;;17.80
10058;BMP180;5068;51.286;7.518;2022-08-02T00:32:17;99690.00;;;17.80
10058;BMP180;5068;51.286;7.518;2022-08-02T00:33:50;99695.00;;;17.70
10058;BMP180;5068;51.286;7.518;2022-08-02T00:35:43;99697.00;;;17.60
10058;BMP180;5068;51.286;7.518;2022-08-02T00:37:18;99696.00;;;17.60
10058;BMP180;5068;51.286;7.518;2022-08-02T00:38:51;99693.00;;;17.60
10058;BMP180;5068;51.286;7.518;2022-08-02T00:40:25;99702.00;;;17.50
10058;BMP180;5068;51.286;7.518;2022-08-02T00:41:58;99710.00;;;17.50
10058;BMP180;5068;51.286;7.518;2022-08-02T00:43:32;99698.00;;;17.40
10058;BMP180;5068;51.286;7.518;2022-08-02T00:45:07;99702.00;;;17.40
10058;BMP180;5068;51.286;7.518;2022-08-02T00:46:43;99699.00;;;17.30
10058;BMP180;5068;51.286;7.518;2022-08-02T00:48:16;99693.00;;;17.30
10058;BMP180;5068;51.286;7.518;2022-08-02T00:49:50;99690.00;;;17.30
10058;BMP180;5068;51.286;7.518;2022-08-02T00:51:23;99687.00;;;17.20
10058;BMP180;5068;51.286;7.518;2022-08-02T00:52:56;99689.00;;;17.20
10058;BMP180;5068;51.286;7.518;2022-08-02T00:54:29;99691.00;;;17.20
10058;BMP180;5068;51.286;7.518;2022-08-02T00:56:03;99680.00;;;17.10
10058;BMP180;5068;51.286;7.518;2022-08-02T00:57:37;99682.00;;;17.10
10058;BMP180;5068;51.286;7.518;2022-08-02T00:59:10;99680.00;;;17.10
10058;BMP180;5068;51.286;7.518;2022-08-02T01:00:47;99686.00;;;17.10
10058;BMP180;5068;51.286;7.518;2022-08-02T01:02:25;99682.00;;;17.00
10058;BMP180;5068;51.286;7.518;2022-08-02T01:04:04;99676.00;;;17.00
10058;BMP180;5068;51.286;7.518;2022-08-02T01:05:38;99678.00;;;17.00
10058;BMP180;5068;51.286;7.518;2022-08-02T01:07:32;99684.00;;;17.00
10058;BMP180;5068;51.286;7.518;2022-08-02T01:09:08;99682.00;;;16.90
10058;BMP180;5068;51.286;7.518;2022-08-02T01:10:43;99684.00;;;16.90
10058;BMP180;5068;51.286;7.518;2022-08-02T01:12:19;99682.00;;;16.90
10058;BMP180;5068;51.286;7.518;2022-08-02T01:13:59;99686.00;;;16.90
10058;BMP180;5068;51.286;7.518;2022-08-02T01:15:44;99683.00;;;16.80
10058;BMP180;5068;51.286;7.518;2022-08-02T01:17:32;99692.00;;;16.80
10058;BMP180;5068;51.286;7.518;2022-08-02T01:19:30;99682.00;;;16.80
10058;BMP180;5068;51.286;7.518;2022-08-02T01:23:43;99695.00;;;16.70
10058;BMP180;5068;51.286;7.518;2022-08-02T01:25:38;99687.00;;;16.70
10058;BMP180;5068;51.286;7.518;2022-08-02T01:27:32;99688.00;;;16.70
10058;BMP180;5068;51.286;7.518;2022-08-02T01:29:16;99690.00;;;16.70
10058;BMP180;5068;51.286;7.518;2022-08-02T01:30:57;99688.00;;;16.70
10058;BMP180;5068;51.286;7.518;2022-08-02T01:32:41;99688.00;;;16.70
10058;BMP180;5068;51.286;7.518;2022-08-02T01:34:19;99680.00;;;16.70
10058;BMP180;5068;51.286;7.518;2022-08-02T01:35:56;99688.00;;;16.60
10058;BMP180;5068;51.286;7.518;2022-08-02T01:37:38;99684.00;;;16.60
10058;BMP180;5068;51.286;7.518;2022-08-02T01:39:18;99689.00;;;16.70
10058;BMP180;5068;51.286;7.518;2022-08-02T01:41:07;99679.00;;;16.70
10058;BMP180;5068;51.286;7.518;2022-08-02T01:42:46;99683.00;;;16.70
10058;BMP180;5068;51.286;7.518;2022-08-02T01:44:24;99676.00;;;16.70
10058;BMP180;5068;51.286;7.518;2022-08-02T01:46:00;99671.00;;;16.70
10058;BMP180;5068;51.286;7.518;2022-08-02T01:47:38;99669.00;;;16.70
10058;BMP180;5068;51.286;7.518;2022-08-02T01:49:17;99658.00;;;16.70
10058;BMP180;5068;51.286;7.518;2022-08-02T01:50:53;99662.00;;;16.70
10058;BMP180;5068;51.286;7.518;2022-08-02T01:52:32;99669.00;;;16.70
10058;BMP180;5068;51.286;7.518;2022-08-02T01:54:11;99666.00;;;16.70
10058;BMP180;5068;51.286;7.518;2022-08-02T01:55:50;99669.00;;;16.60
10058;BMP180;5068;51.286;7.518;2022-08-02T01:57:35;99673.00;;;16.60
10058;BMP180;5068;51.286;7.518;2022-08-02T01:59:18;99670.00;;;16.60
10058;BMP180;5068;51.286;7.518;2022-08-02T02:00:57;99675.00;;;16.50
10058;BMP180;5068;51.286;7.518;2022-08-02T02:02:41;99668.00;;;16.50
10058;BMP180;5068;51.286;7.518;2022-08-02T02:04:22;99665.00;;;16.50
10058;BMP180;5068;51.286;7.518;2022-08-02T02:06:00;99666.00;;;16.60
10058;BMP180;5068;51.286;7.518;2022-08-02T02:07:36;99656.00;;;16.60
10058;BMP180;5068;51.286;7.518;2022-08-02T02:09:14;99672.00;;;16.60
10058;BMP180;5068;51.286;7.518;2022-08-02T02:10:49;99661.00;;;16.60
10058;BMP180;5068;51.286;7.518;2022-08-02T02:12:24;99662.00;;;16.60
10058;BMP180;5068;51.286;7.518;2022-08-02T02:14:02;99660.00;;;16.60
10058;BMP180;5068;51.286;7.518;2022-08-02T02:15:43;99663.00;;;16.60
10058;BMP180;5068;51.286;7.518;2022-08-02T02:17:20;99656.00;;;16.70
10058;BMP180;5068;51.286;7.518;2022-08-02T02:19:17;99655.00;;;16.60
10058;BMP180;5068;51.286;7.518;2022-08-02T02:20:54;99652.00;;;16.60
10058;BMP180;5068;51.286;7.518;2022-08-02T02:22:29;99651.00;;;16.60
10058;BMP180;5068;51.286;7.518;2022-08-02T02:24:04;99647.00;;;16.60
10058;BMP180;5068;51.286;7.518;2022-08-02T02:25:41;99658.00;;;16.50
10058;BMP180;5068;51.286;7.518;2022-08-02T02:27:19;99655.00;;;16.50
10058;BMP180;5068;51.286;7.518;2022-08-02T02:28:56;99658.00;;;16.50
10058;BMP180;5068;51.286;7.518;2022-08-02T02:30:32;99654.00;;;16.40
10058;BMP180;5068;51.286;7.518;2022-08-02T02:32:07;99654.00;;;16.40
10058;BMP180;5068;51.286;7.518;2022-08-02T02:33:48;99657.00;;;16.40
10058;BMP180;5068;51.286;7.518;2022-08-02T02:35:26;99658.00;;;16.40
10058;BMP180;5068;51.286;7.518;2022-08-02T02:37:05;99655.00;;;16.30
10058;BMP180;5068;51.286;7.518;2022-08-02T02:38:41;99648.00;;;16.30
10058;BMP180;5068;51.286;7.518;2022-08-02T02:40:16;99649.00;;;16.30
10058;BMP180;5068;51.286;7.518;2022-08-02T02:41:54;99647.00;;;16.20
10058;BMP180;5068;51.286;7.518;2022-08-02T02:43:31;99649.00;;;16.20
10058;BMP180;5068;51.286;7.518;2022-08-02T02:45:08;99641.00;;;16.20
10058;BMP180;5068;51.286;7.518;2022-08-02T02:46:48;99641.00;;;16.20
10058;BMP180;5068;51.286;7.518;2022-08-02T02:48:24;99643.00;;;16.10
10058;BMP180;5068;51.286;7.518;2022-08-02T02:50:01;99650.00;;;16.10
10058;BMP180;5068;51.286;7.518;2022-08-02T02:51:35;99637.00;;;16.00
10058;BMP180;5068;51.286;7.518;2022-08-02T02:53:15;99641.00;;;16.00
10058;BMP180;5068;51.286;7.518;2022-08-02T02:54:51;99644.00;;;15.90
10058;BMP180;5068;51.286;7.518;2022-08-02T02:56:25;99635.00;;;15.90
10058;BMP180;5068;51.286;7.518;2022-08-02T02:57:58;99642.00;;;15.90
10058;BMP180;5068;51.286;7.518;2022-08-02T03:02:20;99625.00;;;15.80
10058;BMP180;5068;51.286;7.518;2022-08-02T03:03:55;99634.00;;;15.80
10058;BMP180;5068;51.286;7.518;2022-08-02T03:05:30;99636.00;;;15.80
10058;BMP180;5068;51.286;7.518;2022-08-02T03:07:03;99638.00;;;15.80
10058;BMP180;5068;51.286;7.518;2022-08-02T03:08:37;99636.00;;;15.80
10058;BMP180;5068;51.286;7.518;2022-08-02T03:10:11;99636.00;;;15.80
10058;BMP180;5068;51.286;7.518;2022-08-02T03:11:45;99633.00;;;15.80
10058;BMP180;5068;51.286;7.518;2022-08-02T03:13:19;99631.00;;;15.80
10058;BMP180;5068;51.286;7.518;2022-08-02T03:14:53;99633.00;;;15.80
10058;BMP180;5068;51.286;7.518;2022-08-02T03:16:28;99630.00;;;15.70
10058;BMP180;5068;51.286;7.518;2022-08-02T03:18:01;99631.00;;;15.70
10058;BMP180;5068;51.286;7.518;2022-08-02T03:19:35;99639.00;;;15.70
10058;BMP180;5068;51.286;7.518;2022-08-02T03:21:12;99633.00;;;15.70
10058;BMP180;5068;51.286;7.518;2022-08-02T03:22:46;99634.00;;;15.70
10058;BMP180;5068;51.286;7.518;2022-08-02T03:24:19;99636.00;;;15.70
10058;BMP180;5068;51.286;7.518;2022-08-02T03:26:00;99638.00;;;15.70
10058;BMP180;5068;51.286;7.518;2022-08-02T03:27:34;99647.00;;;15.70
10058;BMP180;5068;51.286;7.518;2022-08-02T03:29:08;99627.00;;;15.60
10058;BMP180;5068;51.286;7.518;2022-08-02T03:30:42;99644.00;;;15.70
10058;BMP180;5068;51.286;7.518;2022-08-02T03:32:15;99633.00;;;15.70
10058;BMP180;5068;51.286;7.518;2022-08-02T03:33:49;99637.00;;;15.70
10058;BMP180;5068;51.286;7.518;2022-08-02T03:35:21;99629.00;;;15.70
10058;BMP180;5068;51.286;7.518;2022-08-02T03:36:58;99635.00;;;15.70
10058;BMP180;5068;51.286;7.518;2022-08-02T03:38:33;99640.00;;;15.70
10058;BMP180;5068;51.286;7.518;2022-08-02T03:40:10;99636.00;;;15.70
10058;BMP180;5068;51.286;7.518;2022-08-02T03:41:45;99635.00;;;15.70
10058;BMP180;5068;51.286;7.518;2022-08-02T03:43:20;99642.00;;;15.60
10058;BMP180;5068;51.286;7.518;2022-08-02T03:45:01;99640.00;;;15.60
10058;BMP180;5068;51.286;7.518;2022-08-02T03:46:41;99645.00;;;15.60
10058;BMP180;5068;51.286;7.518;2022-08-02T03:48:17;99647.00;;;15.60
10058;BMP180;5068;51.286;7.518;2022-08-02T03:50:10;99651.00;;;15.60
10058;BMP180;5068;51.286;7.518;2022-08-02T03:51:45;99641.00;;;15.60
10058;BMP180;5068;51.286;7.518;2022-08-02T03:53:20;99640.00;;;15.60
10058;BMP180;5068;51.286;7.518;2022-08-02T03:54:54;99634.00;;;15.60
10058;BMP180;5068;51.286;7.518;2022-08-02T03:56:28;99629.00;;;15.60
10058;BMP180;5068;51.286;7.518;2022-08-02T03:58:02;99625.00;;;15.60
10058;BMP180;5068;51.286;7.518;2022-08-02T03:59:40;99621.00;;;15.60
10058;BMP180;5068;51.286;7.518;2022-08-02T04:01:14;99621.00;;;15.60
10058;BMP180;5068;51.286;7.518;2022-08-02T04:02:49;99629.00;;;15.60
10058;BMP180;5068;51.286;7.518;2022-08-02T04:04:22;99626.00;;;15.50
10058;BMP180;5068;51.286;7.518;2022-08-02T04:05:55;99633.00;;;15.50
10058;BMP180;5068;51.286;7.518;2022-08-02T04:07:35;99630.00;;;15.50
10058;BMP180;5068;51.286;7.518;2022-08-02T04:09:29;99629.00;;;15.60
10058;BMP180;5068;51.286;7.518;2022-08-02T04:11:03;99632.00;;;15.60
10058;BMP180;5068;51.286;7.518;2022-08-02T04:12:55;99634.00;;;15.60
10058;BMP180;5068;51.286;7.518;2022-08-02T04:14:30;99623.00;;;15.60
10058;BMP180;5068;51.286;7.518;2022-08-02T04:16:13;99629.00;;;15.60
10058;BMP180;5068;51.286;7.518;2022-08-02T04:17:52;99642.00;;;15.60
10058;BMP180;5068;51.286;7.518;2022-08-02T04:19:35;99644.00;;;15.60
10058;BMP180;5068;51.286;7.518;2022-08-02T04:21:14;99641.00;;;15.50
10058;BMP180;5068;51.286;7.518;2022-08-02T04:22:55;99639.00;;;15.60
10058;BMP180;5068;51.286;7.518;2022-08-02T04:24:38;99643.00;;;15.60
10058;BMP180;5068;51.286;7.518;2022-08-02T04:26:17;99652.00;;;15.60
10058;BMP180;5068;51.286;7.518;2022-08-02T04:28:01;99643.00;;;15.60
10058;BMP180;5068;51.286;7.518;2022-08-02T04:29:49;99661.00;;;15.60
10058;BMP180;5068;51.286;7.518;2022-08-02T04:31:23;99648.00;;;15.60
10058;BMP180;5068;51.286;7.518;2022-08-02T04:32:58;99648.00;;;15.70
10058;BMP180;5068;51.286;7.518;2022-08-02T04:34:31;99653.00;;;15.60
10058;BMP180;5068;51.286;7.518;2022-08-02T04:36:06;99650.00;;;15.60
10058;BMP180;5068;51.286;7.518;2022-08-02T04:37:40;99653.00;;;15.60
10058;BMP180;5068;51.286;7.518;2022-08-02T04:39:36;99656.00;;;15.50
10058;BMP180;5068;51.286;7.518;2022-08-02T04:41:10;99650.00;;;15.50
10058;BMP180;5068;51.286;7.518;2022-08-02T04:42:43;99662.00;;;15.50
10058;BMP180;5068;51.286;7.518;2022-08-02T04:44:17;99658.00;;;15.50
10058;BMP180;5068;51.286;7.518;2022-08-02T04:45:52;99652.00;;;15.50
10058;BMP180;5068;51.286;7.518;2022-08-02T04:47:26;99655.00;;;15.50
10058;BMP180;5068;51.286;7.518;2022-08-02T04:49:19;99656.00;;;15.50
10058;BMP180;5068;51.286;7.518;2022-08-02T04:50:53;99659.00;;;15.50
10058;BMP180;5068;51.286;7.518;2022-08-02T04:52:27;99658.00;;;15.50
10058;BMP180;5068;51.286;7.518;2022-08-02T04:54:01;99656.00;;;15.50
10058;BMP180;5068;51.286;7.518;2022-08-02T04:55:42;99655.00;;;15.50
10058;BMP180;5068;51.286;7.518;2022-08-02T04:57:16;99659.00;;;15.60
10058;BMP180;5068;51.286;7.518;2022-08-02T04:59:08;99662.00;;;15.60
10058;BMP180;5068;51.286;7.518;2022-08-02T05:00:43;99657.00;;;15.60
10058;BMP180;5068;51.286;7.518;2022-08-02T05:02:16;99647.00;;;15.60
10058;BMP180;5068;51.286;7.518;2022-08-02T05:03:50;99649.00;;;15.70
10058;BMP180;5068;51.286;7.518;2022-08-02T05:05:23;99652.00;;;15.70
10058;BMP180;5068;51.286;7.518;2022-08-02T05:06:56;99643.00;;;15.70
10058;BMP180;5068;51.286;7.518;2022-08-02T05:08:29;99650.00;;;15.70
10058;BMP180;5068;51.286;7.518;2022-08-02T05:10:03;99646.00;;;15.70
10058;BMP180;5068;51.286;7.518;2022-08-02T05:11:38;99651.00;;;15.80
10058;BMP180;5068;51.286;7.518;2022-08-02T05:13:12;99653.00;;;15.80
10058;BMP180;5068;51.286;7.518;2022-08-02T05:14:46;99654.00;;;15.70
10058;BMP180;5068;51.286;7.518;2022-08-02T05:16:20;99649.00;;;15.70
10058;BMP180;5068;51.286;7.518;2022-08-02T05:18:04;99650.00;;;15.70
10058;BMP180;5068;51.286;7.518;2022-08-02T05:19:38;99657.00;;;15.70
10058;BMP180;5068;51.286;7.518;2022-08-02T05:21:13;99655.00;;;15.70
10058;BMP180;5068;51.286;7.518;2022-08-02T05:22:46;99656.00;;;15.80
10058;BMP180;5068;51.286;7.518;2022-08-02T05:24:20;99655.00;;;15.80
10058;BMP180;5068;51.286;7.518;2022-08-02T05:25:53;99655.00;;;15.80
10058;BMP180;5068;51.286;7.518;2022-08-02T05:27:28;99657.00;;;15.90
10058;BMP180;5068;51.286;7.518;2022-08-02T05:29:01;99651.00;;;15.90
10058;BMP180;5068;51.286;7.518;2022-08-02T05:30:36;99651.00;;;15.90
10058;BMP180;5068;51.286;7.518;2022-08-02T05:32:09;99654.00;;;15.90
10058;BMP180;5068;51.286;7.518;2022-08-02T05:33:43;99652.00;;;15.90
10058;BMP180;5068;51.286;7.518;2022-08-02T05:35:18;99645.00;;;15.90
10058;BMP180;5068;51.286;7.518;2022-08-02T05:36:52;99648.00;;;15.90
10058;BMP180;5068;51.286;7.518;2022-08-02T05:38:26;99649.00;;;15.90
10058;BMP180;5068;51.286;7.518;2022-08-02T05:40:05;99657.00;;;15.90
10058;BMP180;5068;51.286;7.518;2022-08-02T05:41:44;99650.00;;;15.90
10058;BMP180;5068;51.286;7.518;2022-08-02T05:43:19;99655.00;;;15.90
10058;BMP180;5068;51.286;7.518;2022-08-02T05:44:55;99650.00;;;15.90
10058;BMP180;5068;51.286;7.518;2022-08-02T05:46:28;99645.00;;;16.00
10058;BMP180;5068;51.286;7.518;2022-08-02T05:48:03;99650.00;;;16.00
10058;BMP180;5068;51.286;7.518;2022-08-02T05:49:36;99650.00;;;16.00
10058;BMP180;5068;51.286;7.518;2022-08-02T05:51:15;99656.00;;;16.00
10058;BMP180;5068;51.286;7.518;2022-08-02T05:53:03;99651.00;;;16.10
10058;BMP180;5068;51.286;7.518;2022-08-02T05:54:47;99651.00;;;16.10
10058;BMP180;5068;51.286;7.518;2022-08-02T05:56:24;99651.00;;;16.10
10058;BMP180;5068;51.286;7.518;2022-08-02T05:58:12;99649.00;;;16.20
10058;BMP180;5068;51.286;7.518;2022-08-02T06:00:02;99659.00;;;16.20
10058;BMP180;5068;51.286;7.518;2022-08-02T06:01:48;99662.00;;;16.30
10058;BMP180;5068;51.286;7.518;2022-08-02T06:03:25;99661.00;;;16.30
10058;BMP180;5068;51.286;7.518;2022-08-02T06:05:09;99653.00;;;16.40
10058;BMP180;5068;51.286;7.518;2022-08-02T06:06:46;99654.00;;;16.40
10058;BMP180;5068;51.286;7.518;2022-08-02T06:08:30;99658.00;;;16.50
10058;BMP180;5068;51.286;7.518;2022-08-02T06:10:06;99643.00;;;16.50
10058;BMP180;5068;51.286;7.518;2022-08-02T06:11:45;99644.00;;;16.60
10058;BMP180;5068;51.286;7.518;2022-08-02T06:13:34;99642.00;;;16.60
10058;BMP180;5068;51.286;7.518;2022-08-02T06:15:14;99647.00;;;16.70
10058;BMP180;5068;51.286;7.518;2022-08-02T06:16:50;99644.00;;;16.70
10058;BMP180;5068;51.286;7.518;2022-08-02T06:18:25;99638.00;;;16.80
10058;BMP180;5068;51.286;7.518;2022-08-02T06:20:02;99640.00;;;16.90
10058;BMP180;5068;51.286;7.518;2022-08-02T06:21:38;99642.00;;;16.90
10058;BMP180;5068;51.286;7.518;2022-08-02T06:23:32;99653.00;;;17.00
10058;BMP180;5068;51.286;7.518;2022-08-02T06:25:09;99655.00;;;17.10
10058;BMP180;5068;51.286;7.518;2022-08-02T06:27:03;99646.00;;;17.10
10058;BMP180;5068;51.286;7.518;2022-08-02T06:28:38;99651.00;;;17.20
10058;BMP180;5068;51.286;7.518;2022-08-02T06:30:14;99649.00;;;17.30
10058;BMP180;5068;51.286;7.518;2022-08-02T06:31:49;99649.00;;;17.30
10058;BMP180;5068;51.286;7.518;2022-08-02T06:33:23;99652.00;;;17.40
10058;BMP180;5068;51.286;7.518;2022-08-02T06:34:57;99646.00;;;17.50
10058;BMP180;5068;51.286;7.518;2022-08-02T06:36:39;99645.00;;;17.60
10058;BMP180;5068;51.286;7.518;2022-08-02T06:38:23;99639.00;;;17.70
10058;BMP180;5068;51.286;7.518;2022-08-02T06:40:05;99640.00;;;17.70
10058;BMP180;5068;51.286;7.518;2022-08-02T06:41:41;99645.00;;;17.80
10058;BMP180;5068;51.286;7.518;2022-08-02T06:43:37;99635.00;;;17.90
10058;BMP180;5068;51.286;7.518;2022-08-02T06:45:14;99631.00;;;18.00
10058;BMP180;5068;51.286;7.518;2022-08-02T06:46:47;99643.00;;;18.10
10058;BMP180;5068;51.286;7.518;2022-08-02T06:48:41;99636.00;;;18.10
10058;BMP180;5068;51.286;7.518;2022-08-02T06:50:14;99640.00;;;18.20
10058;BMP180;5068;51.286;7.518;2022-08-02T06:51:48;99636.00;;;18.30
10058;BMP180;5068;51.286;7.518;2022-08-02T06:53:22;99638.00;;;18.40
10058;BMP180;5068;51.286;7.518;2022-08-02T06:54:58;99634.00;;;18.50
10058;BMP180;5068;51.286;7.518;2022-08-02T06:56:31;99621.00;;;18.50
10058;BMP180;5068;51.286;7.518;2022-08-02T06:58:05;99623.00;;;18.60
10058;BMP180;5068;51.286;7.518;2022-08-02T06:59:38;99620.00;;;18.70
10058;BMP180;5068;51.286;7.518;2022-08-02T07:01:13;99620.00;;;18.80
10058;BMP180;5068;51.286;7.518;2022-08-02T07:02:48;99623.00;;;18.90
10058;BMP180;5068;51.286;7.518;2022-08-02T07:04:22;99619.00;;;19.00
10058;BMP180;5068;51.286;7.518;2022-08-02T07:05:55;99626.00;;;19.10
10058;BMP180;5068;51.286;7.518;2022-08-02T07:07:29;99625.00;;;19.10
10058;BMP180;5068;51.286;7.518;2022-08-02T07:09:03;99621.00;;;19.20
10058;BMP180;5068;51.286;7.518;2022-08-02T07:10:53;99632.00;;;19.30
10058;BMP180;5068;51.286;7.518;2022-08-02T07:12:32;99612.00;;;19.40
10058;BMP180;5068;51.286;7.518;2022-08-02T07:14:04;99627.00;;;19.50
10058;BMP180;5068;51.286;7.518;2022-08-02T07:15:38;99627.00;;;19.60
10058;BMP180;5068;51.286;7.518;2022-08-02T07:17:21;99630.00;;;19.60
10058;BMP180;5068;51.286;7.518;2022-08-02T07:18:55;99637.00;;;19.70
10058;BMP180;5068;51.286;7.518;2022-08-02T07:20:29;99625.00;;;19.80
10058;BMP180;5068;51.286;7.518;2022-08-02T07:22:02;99616.00;;;19.90
10058;BMP180;5068;51.286;7.518;2022-08-02T07:23:36;99618.00;;;20.00
10058;BMP180;5068;51.286;7.518;2022-08-02T07:25:10;99609.00;;;20.10
10058;BMP180;5068;51.286;7.518;2022-08-02T07:26:44;99614.00;;;20.20
10058;BMP180;5068;51.286;7.518;2022-08-02T07:28:37;99621.00;;;20.30
10058;BMP180;5068;51.286;7.518;2022-08-02T07:30:11;99623.00;;;20.40
10058;BMP180;5068;51.286;7.518;2022-08-02T07:31:45;99615.00;;;20.50
10058;BMP180;5068;51.286;7.518;2022-08-02T07:33:20;99610.00;;;20.60
10058;BMP180;5068;51.286;7.518;2022-08-02T07:35:11;99613.00;;;20.70
10058;BMP180;5068;51.286;7.518;2022-08-02T07:36:50;99607.00;;;20.80
10058;BMP180;5068;51.286;7.518;2022-08-02T07:38:24;99606.00;;;20.90
10058;BMP180;5068;51.286;7.518;2022-08-02T07:39:58;99615.00;;;21.00
10058;BMP180;5068;51.286;7.518;2022-08-02T07:41:34;99613.00;;;21.10
10058;BMP180;5068;51.286;7.518;2022-08-02T07:43:07;99614.00;;;21.30
10058;BMP180;5068;51.286;7.518;2022-08-02T07:44:41;99607.00;;;21.40
10058;BMP180;5068;51.286;7.518;2022-08-02T07:46:20;99610.00;;;21.50
10058;BMP180;5068;51.286;7.518;2022-08-02T07:47:53;99614.00;;;21.60
10058;BMP180;5068;51.286;7.518;2022-08-02T07:49:29;99608.00;;;21.70
10058;BMP180;5068;51.286;7.518;2022-08-02T07:51:03;99621.00;;;21.80
10058;BMP180;5068;51.286;7.518;2022-08-02T07:52:36;99619.00;;;21.90
10058;BMP180;5068;51.286;7.518;2022-08-02T07:54:10;99610.00;;;22.00
10058;BMP180;5068;51.286;7.518;2022-08-02T07:55:48;99623.00;;;22.20
10058;BMP180;5068;51.286;7.518;2022-08-02T07:57:22;99610.00;;;22.30
10058;BMP180;5068;51.286;7.518;2022-08-02T07:58:56;99603.00;;;22.40
10058;BMP180;5068;51.286;7.518;2022-08-02T08:00:29;99607.00;;;22.50
10058;BMP180;5068;51.286;7.518;2022-08-02T08:02:03;99602.00;;;22.60
10058;BMP180;5068;51.286;7.518;2022-08-02T08:03:37;99609.00;;;22.70
10058;BMP180;5068;51.286;7.518;2022-08-02T08:05:13;99609.00;;;22.80
10058;BMP180;5068;51.286;7.518;2022-08-02T08:06:46;99617.00;;;22.90
10058;BMP180;5068;51.286;7.518;2022-08-02T08:08:24;99623.00;;;23.10
10058;BMP180;5068;51.286;7.518;2022-08-02T08:09:58;99614.00;;;23.20
10058;BMP180;5068;51.286;7.518;2022-08-02T08:11:32;99612.00;;;23.30
10058;BMP180;5068;51.286;7.518;2022-08-02T08:13:05;99612.00;;;23.40
10058;BMP180;5068;51.286;7.518;2022-08-02T08:14:39;99611.00;;;23.50
10058;BMP180;5068;51.286;7.518;2022-08-02T08:16:12;99616.00;;;23.70
10058;BMP180;5068;51.286;7.518;2022-08-02T08:17:46;99606.00;;;23.80
10058;BMP180;5068;51.286;7.518;2022-08-02T08:19:19;99605.00;;;23.90
10058;BMP180;5068;51.286;7.518;2022-08-02T08:21:15;99608.00;;;24.00
10058;BMP180;5068;51.286;7.518;2022-08-02T08:22:49;99600.00;;;24.10
10058;BMP180;5068;51.286;7.518;2022-08-02T08:24:22;99613.00;;;24.20
10058;BMP180;5068;51.286;7.518;2022-08-02T08:25:55;99605.00;;;24.30
10058;BMP180;5068;51.286;7.518;2022-08-02T08:27:29;99601.00;;;24.50
10058;BMP180;5068;51.286;7.518;2022-08-02T08:29:02;99594.00;;;24.50
10058;BMP180;5068;51.286;7.518;2022-08-02T08:30:39;99605.00;;;24.70
10058;BMP180;5068;51.286;7.518;2022-08-02T08:32:14;99605.00;;;24.80
10058;BMP180;5068;51.286;7.518;2022-08-02T08:33:49;99605.00;;;24.90
10058;BMP180;5068;51.286;7.518;2022-08-02T08:35:23;99604.00;;;25.00
10058;BMP180;5068;51.286;7.518;2022-08-02T08:36:58;99605.00;;;25.10
10058;BMP180;5068;51.286;7.518;2022-08-02T08:38:31;99608.00;;;25.10
10058;BMP180;5068;51.286;7.518;2022-08-02T08:40:06;99600.00;;;25.20
10058;BMP180;5068;51.286;7.518;2022-08-02T08:41:42;99604.00;;;25.30
10058;BMP180;5068;51.286;7.518;2022-08-02T08:43:16;99591.00;;;25.40
10058;BMP180;5068;51.286;7.518;2022-08-02T08:44:49;99591.00;;;25.50
10058;BMP180;5068;51.286;7.518;2022-08-02T08:46:26;99596.00;;;25.60
10058;BMP180;5068;51.286;7.518;2022-08-02T08:48:08;99590.00;;;25.70
10058;BMP180;5068;51.286;7.518;2022-08-02T08:49:46;99598.00;;;25.80
10058;BMP180;5068;51.286;7.518;2022-08-02T08:51:30;99600.00;;;25.80
10058;BMP180;5068;51.286;7.518;2022-08-02T08:53:09;99596.00;;;25.90
10058;BMP180;5068;51.286;7.518;2022-08-02T08:54:47;99605.00;;;26.00
10058;BMP180;5068;51.286;7.518;2022-08-02T08:56:22;99598.00;;;26.10
10058;BMP180;5068;51.286;7.518;2022-08-02T08:57:58;99592.00;;;26.20
10058;BMP180;5068;51.286;7.518;2022-08-02T08:59:32;99589.00;;;26.20
10058;BMP180;5068;51.286;7.518;2022-08-02T09:01:12;99587.00;;;26.30
10058;BMP180;5068;51.286;7.518;2022-08-02T09:02:46;99595.00;;;26.40
10058;BMP180;5068;51.286;7.518;2022-08-02T09:04:20;99593.00;;;26.40
10058;BMP180;5068;51.286;7.518;2022-08-02T09:05:57;99595.00;;;26.50
10058;BMP180;5068;51.286;7.518;2022-08-02T09:07:31;99600.00;;;26.60
10058;BMP180;5068;51.286;7.518;2022-08-02T09:09:06;99597.00;;;26.70
10058;BMP180;5068;51.286;7.518;2022-08-02T09:10:41;99604.00;;;26.70
10058;BMP180;5068;51.286;7.518;2022-08-02T09:12:17;99596.00;;;26.80
10058;BMP180;5068;51.286;7.518;2022-08-02T09:13:55;99602.00;;;26.90
10058;BMP180;5068;51.286;7.518;2022-08-02T09:15:29;99601.00;;;26.90
10058;BMP180;5068;51.286;7.518;2022-08-02T09:17:07;99599.00;;;27.00
10058;BMP180;5068;51.286;7.518;2022-08-02T09:18:44;99600.00;;;27.00
10058;BMP180;5068;51.286;7.518;2022-08-02T09:20:19;99598.00;;;27.10
10058;BMP180;5068;51.286;7.518;2022-08-02T09:22:02;99585.00;;;27.20
10058;BMP180;5068;51.286;7.518;2022-08-02T09:23:38;99598.00;;;27.20
10058;BMP180;5068;51.286;7.518;2022-08-02T09:25:15;99596.00;;;27.30
10058;BMP180;5068;51.286;7.518;2022-08-02T09:26:50;99596.00;;;27.30
10058;BMP180;5068;51.286;7.518;2022-08-02T09:28:29;99598.00;;;27.40
10058;BMP180;5068;51.286;7.518;2022-08-02T09:30:12;99604.00;;;27.50
10058;BMP180;5068;51.286;7.518;2022-08-02T09:31:48;99593.00;;;27.60
10058;BMP180;5068;51.286;7.518;2022-08-02T09:33:26;99598.00;;;27.60